sensor_id;sensor_type;location;lat;lon;timestamp;temperature;humidity
52509;DHT22;38420;53.150;6.370;2023-03-01T00:00:15;-0.10;99.90
52509;DHT22;38420;53.150;6.370;2023-03-01T00:02:40;-0.10;99.90
52509;DHT22;38420;53.150;6.370;2023-03-01T00:05:06;-0.10;99.90
52509;DHT22;38420;53.150;6.370;2023-03-01T00:07:33;-0.50;99.90
52509;DHT22;38420;53.150;6.370;2023-03-01T00:09:58;-0.40;99.90
52509;DHT22;38420;53.150;6.370;2023-03-01T00:12:24;-0.40;99.90
52509;DHT22;38420;53.150;6.370;2023-03-01T00:14:50;-0.60;99.90
52509;DHT22;38420;53.150;6.370;2023-03-01T00:17:15;-0.40;99.90
52509;DHT22;38420;53.150;6.370;2023-03-01T00:19:41;-0.80;99.90
52509;DHT22;38420;53.150;6.370;2023-03-01T00:22:06;-0.70;99.90
52509;DHT22;38420;53.150;6.370;2023-03-01T00:24:32;-0.70;99.90
52509;DHT22;38420;53.150;6.370;2023-03-01T00:26:58;-0.60;99.90
52509;DHT22;38420;53.150;6.370;2023-03-01T00:29:24;-0.30;99.90
52509;DHT22;38420;53.150;6.370;2023-03-01T00:31:50;-0.60;99.90
52509;DHT22;38420;53.150;6.370;2023-03-01T00:34:16;-0.60;99.90
52509;DHT22;38420;53.150;6.370;2023-03-01T00:36:41;-0.40;99.90
52509;DHT22;38420;53.150;6.370;2023-03-01T00:39:11;-0.50;99.90
52509;DHT22;38420;53.150;6.370;2023-03-01T00:41:37;-0.60;99.90
52509;DHT22;38420;53.150;6.370;2023-03-01T00:44:03;-0.80;99.90
52509;DHT22;38420;53.150;6.370;2023-03-01T00:46:29;-0.90;99.90
52509;DHT22;38420;53.150;6.370;2023-03-01T00:48:56;-0.60;99.90
52509;DHT22;38420;53.150;6.370;2023-03-01T00:51:26;-0.70;99.90
52509;DHT22;38420;53.150;6.370;2023-03-01T00:53:59;-0.50;99.90
52509;DHT22;38420;53.150;6.370;2023-03-01T00:56:25;-0.90;99.90
52509;DHT22;38420;53.150;6.370;2023-03-01T00:58:51;-0.60;99.90
52509;DHT22;38420;53.150;6.370;2023-03-01T01:01:20;-0.70;99.90
52509;DHT22;38420;53.150;6.370;2023-03-01T01:06:17;-0.50;99.90
52509;DHT22;38420;53.150;6.370;2023-03-01T01:08:42;-0.80;99.90
52509;DHT22;38420;53.150;6.370;2023-03-01T01:11:12;-0.90;99.90
52509;DHT22;38420;53.150;6.370;2023-03-01T01:13:39;-0.50;99.90
52509;DHT22;38420;53.150;6.370;2023-03-01T01:16:05;-0.60;99.90
52509;DHT22;38420;53.150;6.370;2023-03-01T01:18:31;-1.00;99.90
52509;DHT22;38420;53.150;6.370;2023-03-01T01:20:56;-0.80;99.90
52509;DHT22;38420;53.150;6.370;2023-03-01T01:23:22;-1.00;99.90
52509;DHT22;38420;53.150;6.370;2023-03-01T01:25:48;-0.90;99.90
52509;DHT22;38420;53.150;6.370;2023-03-01T01:28:13;-1.00;99.90
52509;DHT22;38420;53.150;6.370;2023-03-01T01:30:39;-1.40;99.90
52509;DHT22;38420;53.150;6.370;2023-03-01T01:33:05;-1.20;99.90
52509;DHT22;38420;53.150;6.370;2023-03-01T01:35:30;-1.00;99.90
52509;DHT22;38420;53.150;6.370;2023-03-01T01:37:56;-1.30;99.90
52509;DHT22;38420;53.150;6.370;2023-03-01T01:40:21;-1.00;99.90
52509;DHT22;38420;53.150;6.370;2023-03-01T01:42:47;-1.50;99.90
52509;DHT22;38420;53.150;6.370;2023-03-01T01:48:00;-1.20;99.90
52509;DHT22;38420;53.150;6.370;2023-03-01T01:50:29;-1.70;99.90
52509;DHT22;38420;53.150;6.370;2023-03-01T01:53:07;-1.50;99.90
52509;DHT22;38420;53.150;6.370;2023-03-01T01:55:36;-1.40;99.90
52509;DHT22;38420;53.150;6.370;2023-03-01T01:58:09;-1.80;99.90
52509;DHT22;38420;53.150;6.370;2023-03-01T02:00:37;-1.30;99.90
52509;DHT22;38420;53.150;6.370;2023-03-01T02:03:11;-1.80;99.90
52509;DHT22;38420;53.150;6.370;2023-03-01T02:06:03;-1.30;99.90
52509;DHT22;38420;53.150;6.370;2023-03-01T02:08:32;-1.50;99.90
52509;DHT22;38420;53.150;6.370;2023-03-01T02:11:00;-1.50;99.90
52509;DHT22;38420;53.150;6.370;2023-03-01T02:13:27;-1.90;99.90
52509;DHT22;38420;53.150;6.370;2023-03-01T02:15:53;-1.90;99.90
52509;DHT22;38420;53.150;6.370;2023-03-01T02:18:21;-1.90;99.90
52509;DHT22;38420;53.150;6.370;2023-03-01T02:20:57;-1.90;99.90
52509;DHT22;38420;53.150;6.370;2023-03-01T02:23:23;-1.30;99.90
52509;DHT22;38420;53.150;6.370;2023-03-01T02:25:51;-1.30;99.90
52509;DHT22;38420;53.150;6.370;2023-03-01T02:28:32;-1.90;99.90
52509;DHT22;38420;53.150;6.370;2023-03-01T02:30:58;-1.60;99.90
52509;DHT22;38420;53.150;6.370;2023-03-01T02:33:44;-1.60;99.90
52509;DHT22;38420;53.150;6.370;2023-03-01T02:36:15;-2.00;99.90
52509;DHT22;38420;53.150;6.370;2023-03-01T02:38:42;-1.60;99.90
52509;DHT22;38420;53.150;6.370;2023-03-01T02:41:12;-1.90;99.90
52509;DHT22;38420;53.150;6.370;2023-03-01T02:43:38;-1.70;99.90
52509;DHT22;38420;53.150;6.370;2023-03-01T02:46:18;-1.40;99.90
52509;DHT22;38420;53.150;6.370;2023-03-01T02:48:49;-1.60;99.90
52509;DHT22;38420;53.150;6.370;2023-03-01T02:56:45;-2.00;99.90
52509;DHT22;38420;53.150;6.370;2023-03-01T02:59:16;-2.20;99.90
52509;DHT22;38420;53.150;6.370;2023-03-01T03:01:43;-1.50;99.90
52509;DHT22;38420;53.150;6.370;2023-03-01T03:04:15;-1.50;99.90
52509;DHT22;38420;53.150;6.370;2023-03-01T03:06:46;-2.20;99.90
52509;DHT22;38420;53.150;6.370;2023-03-01T03:09:13;-1.80;99.90
52509;DHT22;38420;53.150;6.370;2023-03-01T03:11:39;-1.60;99.90
52509;DHT22;38420;53.150;6.370;2023-03-01T03:14:07;-1.70;99.90
52509;DHT22;38420;53.150;6.370;2023-03-01T03:16:46;-2.10;99.90
52509;DHT22;38420;53.150;6.370;2023-03-01T03:19:12;-1.70;99.90
52509;DHT22;38420;53.150;6.370;2023-03-01T03:21:38;-1.80;99.90
52509;DHT22;38420;53.150;6.370;2023-03-01T03:24:04;-2.30;99.90
52509;DHT22;38420;53.150;6.370;2023-03-01T03:26:30;-2.30;99.90
52509;DHT22;38420;53.150;6.370;2023-03-01T03:28:56;-2.30;99.90
52509;DHT22;38420;53.150;6.370;2023-03-01T03:31:22;-2.00;99.90
52509;DHT22;38420;53.150;6.370;2023-03-01T03:33:48;-1.90;99.90
52509;DHT22;38420;53.150;6.370;2023-03-01T03:36:18;-2.50;99.90
52509;DHT22;38420;53.150;6.370;2023-03-01T03:38:44;-1.80;99.90
52509;DHT22;38420;53.150;6.370;2023-03-01T03:41:14;-2.30;99.90
52509;DHT22;38420;53.150;6.370;2023-03-01T03:43:41;-2.30;99.90
52509;DHT22;38420;53.150;6.370;2023-03-01T03:46:09;-1.90;99.90
52509;DHT22;38420;53.150;6.370;2023-03-01T03:48:37;-2.40;99.90
52509;DHT22;38420;53.150;6.370;2023-03-01T03:51:03;-1.70;99.90
52509;DHT22;38420;53.150;6.370;2023-03-01T03:53:32;-2.40;99.90
52509;DHT22;38420;53.150;6.370;2023-03-01T03:55:58;-1.80;99.90
52509;DHT22;38420;53.150;6.370;2023-03-01T03:58:25;-1.90;99.90
52509;DHT22;38420;53.150;6.370;2023-03-01T04:00:53;-2.10;99.90
52509;DHT22;38420;53.150;6.370;2023-03-01T04:03:19;-2.20;99.90
52509;DHT22;38420;53.150;6.370;2023-03-01T04:05:46;-2.50;99.90
52509;DHT22;38420;53.150;6.370;2023-03-01T04:08:12;-2.40;99.90
52509;DHT22;38420;53.150;6.370;2023-03-01T04:10:39;-1.80;99.90
52509;DHT22;38420;53.150;6.370;2023-03-01T04:13:07;-2.50;99.90
52509;DHT22;38420;53.150;6.370;2023-03-01T04:15:33;-2.10;99.90
52509;DHT22;38420;53.150;6.370;2023-03-01T04:18:00;-1.90;99.90
52509;DHT22;38420;53.150;6.370;2023-03-01T04:20:28;-1.90;99.90
52509;DHT22;38420;53.150;6.370;2023-03-01T04:23:09;-2.50;99.90
52509;DHT22;38420;53.150;6.370;2023-03-01T04:25:55;-2.10;99.90
52509;DHT22;38420;53.150;6.370;2023-03-01T04:28:23;-2.30;99.90
52509;DHT22;38420;53.150;6.370;2023-03-01T04:30:51;-2.00;99.90
52509;DHT22;38420;53.150;6.370;2023-03-01T04:33:17;-2.10;99.90
52509;DHT22;38420;53.150;6.370;2023-03-01T04:35:43;-2.70;99.90
52509;DHT22;38420;53.150;6.370;2023-03-01T04:38:08;-2.50;99.90
52509;DHT22;38420;53.150;6.370;2023-03-01T04:40:34;-2.10;99.90
52509;DHT22;38420;53.150;6.370;2023-03-01T04:43:00;-2.20;99.90
52509;DHT22;38420;53.150;6.370;2023-03-01T04:45:27;-2.80;99.90
52509;DHT22;38420;53.150;6.370;2023-03-01T04:47:53;-2.00;99.90
52509;DHT22;38420;53.150;6.370;2023-03-01T04:50:19;-2.70;99.90
52509;DHT22;38420;53.150;6.370;2023-03-01T04:52:49;-2.60;99.90
52509;DHT22;38420;53.150;6.370;2023-03-01T04:55:15;-2.00;99.90
52509;DHT22;38420;53.150;6.370;2023-03-01T04:57:41;-2.30;99.90
52509;DHT22;38420;53.150;6.370;2023-03-01T05:00:09;-2.60;99.90
52509;DHT22;38420;53.150;6.370;2023-03-01T05:02:53;-2.10;99.90
52509;DHT22;38420;53.150;6.370;2023-03-01T05:05:24;-2.20;99.90
52509;DHT22;38420;53.150;6.370;2023-03-01T05:07:52;-2.70;99.90
52509;DHT22;38420;53.150;6.370;2023-03-01T05:10:18;-2.50;99.90
52509;DHT22;38420;53.150;6.370;2023-03-01T05:12:44;-2.40;99.90
52509;DHT22;38420;53.150;6.370;2023-03-01T05:15:10;-2.80;99.90
52509;DHT22;38420;53.150;6.370;2023-03-01T05:17:35;-2.20;99.90
52509;DHT22;38420;53.150;6.370;2023-03-01T05:20:01;-2.90;99.90
52509;DHT22;38420;53.150;6.370;2023-03-01T05:22:31;-2.70;99.90
52509;DHT22;38420;53.150;6.370;2023-03-01T05:24:57;-2.60;99.90
52509;DHT22;38420;53.150;6.370;2023-03-01T05:27:23;-2.60;99.90
52509;DHT22;38420;53.150;6.370;2023-03-01T05:29:48;-2.80;99.90
52509;DHT22;38420;53.150;6.370;2023-03-01T05:32:14;-2.60;99.90
52509;DHT22;38420;53.150;6.370;2023-03-01T05:34:41;-2.60;99.90
52509;DHT22;38420;53.150;6.370;2023-03-01T05:37:06;-2.80;99.90
52509;DHT22;38420;53.150;6.370;2023-03-01T05:39:33;-3.20;99.90
52509;DHT22;38420;53.150;6.370;2023-03-01T05:42:00;-2.80;99.90
52509;DHT22;38420;53.150;6.370;2023-03-01T05:44:27;-3.10;99.90
52509;DHT22;38420;53.150;6.370;2023-03-01T05:46:53;-2.90;99.90
52509;DHT22;38420;53.150;6.370;2023-03-01T05:49:19;-2.90;99.90
52509;DHT22;38420;53.150;6.370;2023-03-01T05:51:50;-2.70;99.90
52509;DHT22;38420;53.150;6.370;2023-03-01T05:54:16;-3.00;99.90
52509;DHT22;38420;53.150;6.370;2023-03-01T05:56:41;-3.00;99.90
52509;DHT22;38420;53.150;6.370;2023-03-01T05:59:07;-3.00;99.90
52509;DHT22;38420;53.150;6.370;2023-03-01T06:01:34;-2.90;99.90
52509;DHT22;38420;53.150;6.370;2023-03-01T06:04:00;-2.90;99.90
52509;DHT22;38420;53.150;6.370;2023-03-01T06:06:26;-2.90;99.90
52509;DHT22;38420;53.150;6.370;2023-03-01T06:08:52;-2.90;99.90
52509;DHT22;38420;53.150;6.370;2023-03-01T06:11:19;-3.40;99.90
52509;DHT22;38420;53.150;6.370;2023-03-01T06:13:45;-3.20;99.90
52509;DHT22;38420;53.150;6.370;2023-03-01T06:16:12;-3.40;99.90
52509;DHT22;38420;53.150;6.370;2023-03-01T06:18:38;-2.80;99.90
52509;DHT22;38420;53.150;6.370;2023-03-01T06:21:05;-3.10;99.90
52509;DHT22;38420;53.150;6.370;2023-03-01T06:23:31;-3.30;99.90
52509;DHT22;38420;53.150;6.370;2023-03-01T06:26:00;-3.30;99.90
52509;DHT22;38420;53.150;6.370;2023-03-01T06:28:26;-2.80;99.90
52509;DHT22;38420;53.150;6.370;2023-03-01T06:30:51;-3.20;99.90
52509;DHT22;38420;53.150;6.370;2023-03-01T06:33:18;-3.10;99.90
52509;DHT22;38420;53.150;6.370;2023-03-01T06:35:46;-3.20;99.90
52509;DHT22;38420;53.150;6.370;2023-03-01T06:38:12;-2.70;99.90
52509;DHT22;38420;53.150;6.370;2023-03-01T06:40:40;-3.20;99.90
52509;DHT22;38420;53.150;6.370;2023-03-01T06:43:06;-2.90;99.90
52509;DHT22;38420;53.150;6.370;2023-03-01T06:45:33;-2.70;99.90
52509;DHT22;38420;53.150;6.370;2023-03-01T06:48:06;-2.70;99.90
52509;DHT22;38420;53.150;6.370;2023-03-01T06:50:33;-3.00;99.90
52509;DHT22;38420;53.150;6.370;2023-03-01T06:52:59;-2.60;99.90
52509;DHT22;38420;53.150;6.370;2023-03-01T06:55:25;-2.80;99.90
52509;DHT22;38420;53.150;6.370;2023-03-01T06:57:58;-3.00;99.90
52509;DHT22;38420;53.150;6.370;2023-03-01T07:00:24;-2.50;99.90
52509;DHT22;38420;53.150;6.370;2023-03-01T07:02:51;-2.60;99.90
52509;DHT22;38420;53.150;6.370;2023-03-01T07:05:17;-3.00;99.90
52509;DHT22;38420;53.150;6.370;2023-03-01T07:07:42;-3.00;99.90
52509;DHT22;38420;53.150;6.370;2023-03-01T07:10:09;-2.60;99.90
52509;DHT22;38420;53.150;6.370;2023-03-01T07:12:34;-2.90;99.90
52509;DHT22;38420;53.150;6.370;2023-03-01T07:15:00;-2.70;99.90
52509;DHT22;38420;53.150;6.370;2023-03-01T07:17:26;-2.70;99.90
52509;DHT22;38420;53.150;6.370;2023-03-01T07:19:51;-2.50;99.90
52509;DHT22;38420;53.150;6.370;2023-03-01T07:22:17;-2.60;99.90
52509;DHT22;38420;53.150;6.370;2023-03-01T07:24:43;-2.40;99.90
52509;DHT22;38420;53.150;6.370;2023-03-01T07:27:09;-2.30;99.90
52509;DHT22;38420;53.150;6.370;2023-03-01T07:29:34;-2.40;99.90
52509;DHT22;38420;53.150;6.370;2023-03-01T07:32:02;-2.00;99.90
52509;DHT22;38420;53.150;6.370;2023-03-01T07:34:28;-2.50;99.90
52509;DHT22;38420;53.150;6.370;2023-03-01T07:36:54;-2.00;99.90
52509;DHT22;38420;53.150;6.370;2023-03-01T07:39:20;-2.10;99.90
52509;DHT22;38420;53.150;6.370;2023-03-01T07:41:45;-1.80;99.90
52509;DHT22;38420;53.150;6.370;2023-03-01T07:44:11;-1.70;99.90
52509;DHT22;38420;53.150;6.370;2023-03-01T07:46:36;-1.90;99.90
52509;DHT22;38420;53.150;6.370;2023-03-01T07:49:02;-2.00;99.90
52509;DHT22;38420;53.150;6.370;2023-03-01T07:51:28;-1.70;99.90
52509;DHT22;38420;53.150;6.370;2023-03-01T07:53:53;-1.40;99.90
52509;DHT22;38420;53.150;6.370;2023-03-01T07:56:19;-1.50;99.90
52509;DHT22;38420;53.150;6.370;2023-03-01T07:58:46;-1.50;99.90
52509;DHT22;38420;53.150;6.370;2023-03-01T08:01:15;-1.50;99.90
52509;DHT22;38420;53.150;6.370;2023-03-01T08:03:41;-0.90;99.90
52509;DHT22;38420;53.150;6.370;2023-03-01T08:06:11;-1.30;99.90
52509;DHT22;38420;53.150;6.370;2023-03-01T08:08:37;-0.10;99.90
52509;DHT22;38420;53.150;6.370;2023-03-01T08:11:05;-1.00;99.90
52509;DHT22;38420;53.150;6.370;2023-03-01T08:13:31;-0.40;99.90
52509;DHT22;38420;53.150;6.370;2023-03-01T08:16:05;-0.40;99.90
52509;DHT22;38420;53.150;6.370;2023-03-01T08:18:32;-0.40;99.90
52509;DHT22;38420;53.150;6.370;2023-03-01T08:21:15;-0.60;99.90
52509;DHT22;38420;53.150;6.370;2023-03-01T08:23:41;0.10;99.90
52509;DHT22;38420;53.150;6.370;2023-03-01T08:26:12;0.00;99.90
52509;DHT22;38420;53.150;6.370;2023-03-01T08:28:39;0.10;99.90
52509;DHT22;38420;53.150;6.370;2023-03-01T08:31:21;0.20;99.90
52509;DHT22;38420;53.150;6.370;2023-03-01T08:33:49;0.10;99.90
52509;DHT22;38420;53.150;6.370;2023-03-01T08:36:21;0.00;99.90
52509;DHT22;38420;53.150;6.370;2023-03-01T08:38:47;0.50;99.90
52509;DHT22;38420;53.150;6.370;2023-03-01T08:41:13;0.20;99.90
52509;DHT22;38420;53.150;6.370;2023-03-01T08:43:40;0.50;99.90
52509;DHT22;38420;53.150;6.370;2023-03-01T08:46:05;0.80;99.90
52509;DHT22;38420;53.150;6.370;2023-03-01T08:48:31;0.40;99.90
52509;DHT22;38420;53.150;6.370;2023-03-01T08:50:57;1.10;99.90
52509;DHT22;38420;53.150;6.370;2023-03-01T08:53:22;0.60;99.90
52509;DHT22;38420;53.150;6.370;2023-03-01T08:55:48;1.20;99.90
52509;DHT22;38420;53.150;6.370;2023-03-01T08:58:14;1.00;99.90
52509;DHT22;38420;53.150;6.370;2023-03-01T09:00:39;1.90;99.90
52509;DHT22;38420;53.150;6.370;2023-03-01T09:03:05;2.50;99.90
52509;DHT22;38420;53.150;6.370;2023-03-01T09:05:32;3.10;99.90
52509;DHT22;38420;53.150;6.370;2023-03-01T09:07:58;4.50;99.90
52509;DHT22;38420;53.150;6.370;2023-03-01T09:10:24;4.30;99.90
52509;DHT22;38420;53.150;6.370;2023-03-01T09:12:49;4.90;99.90
52509;DHT22;38420;53.150;6.370;2023-03-01T09:15:15;5.50;99.90
52509;DHT22;38420;53.150;6.370;2023-03-01T09:17:40;5.80;99.90
52509;DHT22;38420;53.150;6.370;2023-03-01T09:20:06;5.90;99.90
52509;DHT22;38420;53.150;6.370;2023-03-01T09:22:35;6.10;99.90
52509;DHT22;38420;53.150;6.370;2023-03-01T09:25:00;6.70;99.90
52509;DHT22;38420;53.150;6.370;2023-03-01T09:27:26;6.80;99.90
52509;DHT22;38420;53.150;6.370;2023-03-01T09:29:52;7.10;99.90
52509;DHT22;38420;53.150;6.370;2023-03-01T09:32:17;7.60;99.90
52509;DHT22;38420;53.150;6.370;2023-03-01T09:34:43;7.90;99.90
52509;DHT22;38420;53.150;6.370;2023-03-01T09:37:29;8.30;99.90
52509;DHT22;38420;53.150;6.370;2023-03-01T09:39:55;9.20;99.90
52509;DHT22;38420;53.150;6.370;2023-03-01T09:42:20;9.70;99.90
52509;DHT22;38420;53.150;6.370;2023-03-01T09:45:00;10.40;99.90
52509;DHT22;38420;53.150;6.370;2023-03-01T09:47:29;10.70;99.90
52509;DHT22;38420;53.150;6.370;2023-03-01T09:53:21;9.90;99.90
52509;DHT22;38420;53.150;6.370;2023-03-01T09:55:59;9.40;99.90
52509;DHT22;38420;53.150;6.370;2023-03-01T10:01:00;8.70;99.90
52509;DHT22;38420;53.150;6.370;2023-03-01T10:03:36;8.50;99.90
52509;DHT22;38420;53.150;6.370;2023-03-01T10:06:24;8.50;99.90
52509;DHT22;38420;53.150;6.370;2023-03-01T10:09:07;8.30;99.90
52509;DHT22;38420;53.150;6.370;2023-03-01T10:11:45;8.30;99.90
52509;DHT22;38420;53.150;6.370;2023-03-01T10:14:38;8.30;99.90
52509;DHT22;38420;53.150;6.370;2023-03-01T10:17:20;8.30;99.90
52509;DHT22;38420;53.150;6.370;2023-03-01T10:19:49;8.20;99.90
52509;DHT22;38420;53.150;6.370;2023-03-01T10:22:21;8.20;99.90
52509;DHT22;38420;53.150;6.370;2023-03-01T10:24:47;8.00;99.90
52509;DHT22;38420;53.150;6.370;2023-03-01T10:27:23;7.90;99.90
52509;DHT22;38420;53.150;6.370;2023-03-01T10:30:05;7.90;99.90
52509;DHT22;38420;53.150;6.370;2023-03-01T10:32:33;7.90;99.90
52509;DHT22;38420;53.150;6.370;2023-03-01T10:34:59;7.80;99.90
52509;DHT22;38420;53.150;6.370;2023-03-01T10:37:25;7.90;99.90
52509;DHT22;38420;53.150;6.370;2023-03-01T10:42:27;7.80;99.90
52509;DHT22;38420;53.150;6.370;2023-03-01T10:44:54;7.80;99.90
52509;DHT22;38420;53.150;6.370;2023-03-01T10:47:25;7.80;99.90
52509;DHT22;38420;53.150;6.370;2023-03-01T10:50:08;7.90;99.90
52509;DHT22;38420;53.150;6.370;2023-03-01T10:52:59;7.90;99.90
52509;DHT22;38420;53.150;6.370;2023-03-01T10:55:38;7.90;99.90
52509;DHT22;38420;53.150;6.370;2023-03-01T11:00:33;7.90;99.90
52509;DHT22;38420;53.150;6.370;2023-03-01T11:03:23;7.90;99.90
52509;DHT22;38420;53.150;6.370;2023-03-01T11:05:56;7.90;99.90
52509;DHT22;38420;53.150;6.370;2023-03-01T11:08:49;7.90;99.90
52509;DHT22;38420;53.150;6.370;2023-03-01T11:11:24;7.90;99.90
52509;DHT22;38420;53.150;6.370;2023-03-01T11:16:28;7.80;99.90
52509;DHT22;38420;53.150;6.370;2023-03-01T11:19:20;7.60;99.90
52509;DHT22;38420;53.150;6.370;2023-03-01T11:22:19;7.60;99.90
52509;DHT22;38420;53.150;6.370;2023-03-01T11:27:21;7.60;99.90
52509;DHT22;38420;53.150;6.370;2023-03-01T11:30:35;7.70;99.90
52509;DHT22;38420;53.150;6.370;2023-03-01T11:32:55;7.70;99.90
52509;DHT22;38420;53.150;6.370;2023-03-01T11:35:26;7.70;99.90
52509;DHT22;38420;53.150;6.370;2023-03-01T11:40:25;7.70;99.90
52509;DHT22;38420;53.150;6.370;2023-03-01T11:43:15;7.70;99.90
52509;DHT22;38420;53.150;6.370;2023-03-01T11:48:38;7.80;99.90
52509;DHT22;38420;53.150;6.370;2023-03-01T11:56:50;7.80;99.90
52509;DHT22;38420;53.150;6.370;2023-03-01T11:59:44;7.70;99.90
52509;DHT22;38420;53.150;6.370;2023-03-01T12:10:53;7.70;99.90
52509;DHT22;38420;53.150;6.370;2023-03-01T12:22:40;7.70;99.90
52509;DHT22;38420;53.150;6.370;2023-03-01T12:30:36;7.90;99.90
52509;DHT22;38420;53.150;6.370;2023-03-01T12:33:37;7.90;99.90
52509;DHT22;38420;53.150;6.370;2023-03-01T12:38:48;8.10;99.90
52509;DHT22;38420;53.150;6.370;2023-03-01T12:47:05;8.20;99.90
52509;DHT22;38420;53.150;6.370;2023-03-01T12:49:36;8.20;99.90
52509;DHT22;38420;53.150;6.370;2023-03-01T12:52:16;8.20;99.90
52509;DHT22;38420;53.150;6.370;2023-03-01T12:54:44;8.30;99.90
52509;DHT22;38420;53.150;6.370;2023-03-01T12:57:41;8.30;99.90
52509;DHT22;38420;53.150;6.370;2023-03-01T13:01:19;8.40;99.90
52509;DHT22;38420;53.150;6.370;2023-03-01T13:06:15;8.50;99.90
52509;DHT22;38420;53.150;6.370;2023-03-01T13:08:55;8.50;99.90
52509;DHT22;38420;53.150;6.370;2023-03-01T13:11:23;8.50;99.90
52509;DHT22;38420;53.150;6.370;2023-03-01T13:13:49;8.50;99.90
52509;DHT22;38420;53.150;6.370;2023-03-01T13:16:40;8.50;99.90
52509;DHT22;38420;53.150;6.370;2023-03-01T13:19:10;8.60;99.90
52509;DHT22;38420;53.150;6.370;2023-03-01T13:21:36;8.60;99.90
52509;DHT22;38420;53.150;6.370;2023-03-01T13:24:02;8.60;99.90
52509;DHT22;38420;53.150;6.370;2023-03-01T13:26:28;8.60;99.90
52509;DHT22;38420;53.150;6.370;2023-03-01T13:28:58;8.50;99.90
52509;DHT22;38420;53.150;6.370;2023-03-01T13:33:55;8.40;99.90
52509;DHT22;38420;53.150;6.370;2023-03-01T13:39:03;8.70;99.90
52509;DHT22;38420;53.150;6.370;2023-03-01T13:55:00;9.50;99.90
52509;DHT22;38420;53.150;6.370;2023-03-01T13:57:34;9.50;99.90
52509;DHT22;38420;53.150;6.370;2023-03-01T14:00:03;9.50;99.90
52509;DHT22;38420;53.150;6.370;2023-03-01T14:02:30;9.40;99.90
52509;DHT22;38420;53.150;6.370;2023-03-01T14:04:59;9.40;99.90
52509;DHT22;38420;53.150;6.370;2023-03-01T14:07:26;9.40;99.90
52509;DHT22;38420;53.150;6.370;2023-03-01T14:10:06;9.40;99.90
52509;DHT22;38420;53.150;6.370;2023-03-01T14:15:42;9.30;99.90
52509;DHT22;38420;53.150;6.370;2023-03-01T14:18:22;9.00;99.90
52509;DHT22;38420;53.150;6.370;2023-03-01T14:20:52;8.80;99.90
52509;DHT22;38420;53.150;6.370;2023-03-01T14:23:22;8.80;99.90
52509;DHT22;38420;53.150;6.370;2023-03-01T14:25:53;8.80;99.90
52509;DHT22;38420;53.150;6.370;2023-03-01T14:28:30;8.90;99.90
52509;DHT22;38420;53.150;6.370;2023-03-01T14:31:00;8.90;99.90
52509;DHT22;38420;53.150;6.370;2023-03-01T14:33:30;8.80;99.90
52509;DHT22;38420;53.150;6.370;2023-03-01T14:36:12;8.80;99.90
52509;DHT22;38420;53.150;6.370;2023-03-01T14:38:41;8.80;99.90
52509;DHT22;38420;53.150;6.370;2023-03-01T14:41:21;8.70;99.90
52509;DHT22;38420;53.150;6.370;2023-03-01T14:43:55;8.70;99.90
52509;DHT22;38420;53.150;6.370;2023-03-01T14:46:26;8.70;99.90
52509;DHT22;38420;53.150;6.370;2023-03-01T14:49:02;8.70;99.90
52509;DHT22;38420;53.150;6.370;2023-03-01T14:51:28;8.90;99.90
52509;DHT22;38420;53.150;6.370;2023-03-01T14:53:55;8.90;99.90
52509;DHT22;38420;53.150;6.370;2023-03-01T14:56:21;9.00;99.90
52509;DHT22;38420;53.150;6.370;2023-03-01T14:58:51;8.90;99.90
52509;DHT22;38420;53.150;6.370;2023-03-01T15:01:17;8.80;99.90
52509;DHT22;38420;53.150;6.370;2023-03-01T15:03:50;8.80;99.90
52509;DHT22;38420;53.150;6.370;2023-03-01T15:06:18;8.70;99.90
52509;DHT22;38420;53.150;6.370;2023-03-01T15:08:46;8.60;99.90
52509;DHT22;38420;53.150;6.370;2023-03-01T15:11:27;8.60;99.90
52509;DHT22;38420;53.150;6.370;2023-03-01T15:13:53;8.50;99.90
52509;DHT22;38420;53.150;6.370;2023-03-01T15:16:24;8.50;99.90
52509;DHT22;38420;53.150;6.370;2023-03-01T15:18:52;8.70;99.90
52509;DHT22;38420;53.150;6.370;2023-03-01T15:21:27;8.60;99.90
52509;DHT22;38420;53.150;6.370;2023-03-01T15:23:58;8.70;99.90
52509;DHT22;38420;53.150;6.370;2023-03-01T15:26:28;8.70;99.90
52509;DHT22;38420;53.150;6.370;2023-03-01T15:28:57;8.70;99.90
52509;DHT22;38420;53.150;6.370;2023-03-01T15:31:32;8.70;99.90
52509;DHT22;38420;53.150;6.370;2023-03-01T15:34:25;8.60;99.90
52509;DHT22;38420;53.150;6.370;2023-03-01T15:36:53;8.50;99.90
52509;DHT22;38420;53.150;6.370;2023-03-01T15:42:09;8.30;99.90
52509;DHT22;38420;53.150;6.370;2023-03-01T15:44:37;8.20;99.90
52509;DHT22;38420;53.150;6.370;2023-03-01T15:47:22;8.30;99.90
52509;DHT22;38420;53.150;6.370;2023-03-01T15:49:48;8.00;99.90
52509;DHT22;38420;53.150;6.370;2023-03-01T15:52:40;7.90;99.90
52509;DHT22;38420;53.150;6.370;2023-03-01T15:55:18;7.90;99.90
52509;DHT22;38420;53.150;6.370;2023-03-01T15:57:44;7.80;99.90
52509;DHT22;38420;53.150;6.370;2023-03-01T16:00:10;7.80;99.90
52509;DHT22;38420;53.150;6.370;2023-03-01T16:02:37;7.80;99.90
52509;DHT22;38420;53.150;6.370;2023-03-01T16:05:03;8.50;99.90
52509;DHT22;38420;53.150;6.370;2023-03-01T16:07:29;7.60;99.90
52509;DHT22;38420;53.150;6.370;2023-03-01T16:09:56;7.60;99.90
52509;DHT22;38420;53.150;6.370;2023-03-01T16:12:22;7.60;99.90
52509;DHT22;38420;53.150;6.370;2023-03-01T16:14:49;7.50;99.90
52509;DHT22;38420;53.150;6.370;2023-03-01T16:17:15;7.50;99.90
52509;DHT22;38420;53.150;6.370;2023-03-01T16:19:41;7.50;99.90
52509;DHT22;38420;53.150;6.370;2023-03-01T16:22:10;7.50;99.90
52509;DHT22;38420;53.150;6.370;2023-03-01T16:24:36;7.60;99.90
52509;DHT22;38420;53.150;6.370;2023-03-01T16:27:02;7.60;99.90
52509;DHT22;38420;53.150;6.370;2023-03-01T16:29:27;7.70;99.90
52509;DHT22;38420;53.150;6.370;2023-03-01T16:31:54;7.70;99.90
52509;DHT22;38420;53.150;6.370;2023-03-01T16:34:20;7.60;99.90
52509;DHT22;38420;53.150;6.370;2023-03-01T16:36:47;7.50;99.90
52509;DHT22;38420;53.150;6.370;2023-03-01T16:39:13;7.40;99.90
52509;DHT22;38420;53.150;6.370;2023-03-01T16:41:39;7.30;99.90
52509;DHT22;38420;53.150;6.370;2023-03-01T16:44:04;7.20;99.90
52509;DHT22;38420;53.150;6.370;2023-03-01T16:46:30;7.10;99.90
52509;DHT22;38420;53.150;6.370;2023-03-01T16:48:56;7.00;99.90
52509;DHT22;38420;53.150;6.370;2023-03-01T16:51:22;7.00;99.90
52509;DHT22;38420;53.150;6.370;2023-03-01T16:53:49;7.00;99.90
52509;DHT22;38420;53.150;6.370;2023-03-01T16:56:16;6.90;99.90
52509;DHT22;38420;53.150;6.370;2023-03-01T16:58:42;6.80;99.90
52509;DHT22;38420;53.150;6.370;2023-03-01T17:01:19;6.70;99.90
52509;DHT22;38420;53.150;6.370;2023-03-01T17:03:46;6.50;99.90
52509;DHT22;38420;53.150;6.370;2023-03-01T17:06:15;6.40;99.90
52509;DHT22;38420;53.150;6.370;2023-03-01T17:08:41;6.30;99.90
52509;DHT22;38420;53.150;6.370;2023-03-01T17:11:09;6.20;99.90
52509;DHT22;38420;53.150;6.370;2023-03-01T17:13:36;6.10;99.90
52509;DHT22;38420;53.150;6.370;2023-03-01T17:16:04;6.20;99.90
52509;DHT22;38420;53.150;6.370;2023-03-01T17:18:30;5.90;99.90
52509;DHT22;38420;53.150;6.370;2023-03-01T17:20:56;5.70;99.90
52509;DHT22;38420;53.150;6.370;2023-03-01T17:23:22;5.80;99.90
52509;DHT22;38420;53.150;6.370;2023-03-01T17:25:47;5.50;99.90
52509;DHT22;38420;53.150;6.370;2023-03-01T17:28:14;5.50;99.90